• Join FlightAware (Why Join?)
  • Login
  • US Flag 
11:22AM EDT


 

Airport Tracker/Info


-or-


 

Live Flight TrackerFlight Track Log ✈ BOE632 ✈ 09-May-2007 ✈ KIAB - KCHS

Flight Track Log - Related Links

Times and Time Zones

All times are in EDT time to prevent confusion due to time zone crossing. See the BOE632 flight status page for this flight to view local times or setup timezone preferences in your user account.

Time Position Orientation Groundspeed Altitude Reporting Facility
EDT Latitude Longitude Course Direction KTS MPH feet Rate Location/Type
07:16PM 37.7333 -97.1333 113° Southeast 295 339 27,000  Level
07:17PM 37.7000 -97.0333 127° Southeast 300 345 10,100 -7,560 Descending
07:18PM 37.6500 -96.9500 126° Southeast 307 353 11,900 2,100 Climbing
07:19PM 37.5833 -96.8333 122° Southeast 359 413 14,300 2,580 Climbing
07:20PM 37.5167 -96.7000 122° Southeast 399 459 17,100 2,700 Climbing
07:21PM 37.4500 -96.5667 115° Southeast 422 486 19,700 2,400 Climbing
07:22PM 37.4000 -96.4333 122° Southeast 428 493 22,000 1,980 Climbing
07:23PM 37.3333 -96.3000 122° Southeast 433 498 23,700 1,740 Climbing
07:24PM 37.2667 -96.1667 122° Southeast 443 510 25,600 1,620 Climbing
07:25PM 37.2000 -96.0333 119° Southeast 455 524 27,000 660 Climbing
07:26PM 37.1333 -95.8833 122° Southeast 467 537 27,000  Level
07:27PM 37.0667 -95.7500 125° Southeast 472 543 27,000  Level
07:28PM 36.9833 -95.6000 119° Southeast 478 550 27,000  Level
07:29PM 36.9167 -95.4500 122° Southeast 478 550 27,000  Level
07:30PM 36.8500 -95.3167 119° Southeast 478 550 27,000  Level
07:31PM 36.7833 -95.1667 180° South 478 550 27,000  Level
07:31PM 36.7667 -95.1667 116° Southeast 476 548 27,000  Level
07:32PM 36.7000 -95.0000 122° Southeast 476 548 27,000  Level
07:33PM 36.6333 -94.8667 128° Southeast 482 555 27,000  Level
07:34PM 36.5500 -94.7333 119° Southeast 482 555 27,000  Level
07:35PM 36.4833 -94.5833 122° Southeast 482 555 27,000  Level
07:36PM 36.4167 -94.4500 125° Southeast 482 555 27,000  Level
07:37PM 36.3333 -94.3000 122° Southeast 482 555 27,000  Level
07:38PM 36.2667 -94.1667 119° Southeast 482 555 27,000  Level
07:39PM 36.2000 -94.0167 105° East 482 555 27,000  Level
07:40PM 36.1667 -93.8667 110° East 482 555 27,000  Level
07:41PM 36.1167 -93.7000 104° East 487 560 27,000  Level
07:42PM 36.0833 -93.5333 112° Southeast 487 560 27,000  Level
07:43PM 36.0333 -93.3833 105° East 487 560 27,000  Level
07:44PM 36.0000 -93.2333 112° Southeast 487 560 27,000  Level
07:45PM 35.9500 -93.0833 110° East 482 555 27,000  Level
07:46PM 35.9000 -92.9167 105° East 482 555 27,000  Level
07:47PM 35.8667 -92.7667 112° Southeast 477 549 27,000  Level
07:48PM 35.8167 -92.6167 110° East 477 549 27,000  Level
07:49PM 35.7667 -92.4500 105° East 477 549 27,000  Level
07:50PM 35.7333 -92.3000 112° Southeast 477 549 27,000  Level
07:51PM 35.6833 -92.1500 112° Southeast 472 543 27,000  Level
07:52PM 35.6333 -92.0000 110° East 472 543 27,000  Level
07:53PM 35.5833 -91.8333 105° East 472 543 27,000  Level
07:54PM 35.5500 -91.6833 112° Southeast 472 543 27,000  Level
07:55PM 35.5000 -91.5333 112° Southeast 472 543 27,000  Level
07:56PM 35.4500 -91.3833 112° Southeast 472 543 27,000  Level
07:57PM 35.4000 -91.2333 110° East 477 549 27,000  Level
07:58PM 35.3500 -91.0667 105° East 477 549 27,000  Level
07:59PM 35.3167 -90.9167 112° Southeast 477 549 27,000  Level
08:00PM 35.2667 -90.7667 112° Southeast 477 549 27,000  Level
08:01PM 35.2167 -90.6167 112° Southeast 477 549 27,000  Level
08:02PM 35.1667 -90.4667 127° Southeast 477 549 27,000  Level
08:03PM 35.0833 -90.3333 127° Southeast 476 548 27,000  Level
08:04PM 35.0000 -90.2000 118° Southeast 485 558 27,000  Level
08:05PM 34.9333 -90.0500 112° Southeast 485 558 27,000  Level
08:06PM 34.8833 -89.9000 112° Southeast 480 552 27,000  Level
08:07PM 34.8333 -89.7500 116° Southeast 489 563 27,000  Level
08:08PM 34.7667 -89.5833 118° Southeast 501 577 27,000  Level
08:09PM 34.7000 -89.4333 114° Southeast 496 571 27,000  Level
08:10PM 34.6500 -89.3000 112° Southeast 485 558 27,000  Level
08:11PM 34.6000 -89.1500 112° Southeast 485 558 27,000  Level
08:12PM 34.5500 -89.0000 97° East 475 547 27,000  Level
08:13PM 34.5333 -88.8333 98° East 476 548 27,000  Level
08:14PM 34.5167 -88.6833 97° East 471 542 27,000  Level
08:15PM 34.5000 -88.5167 98° East 471 542 27,000  Level
08:16PM 34.4833 -88.3667 104° East 471 542 27,000  Level
08:17PM 34.4500 -88.2000 97° East 466 536 27,000  Level
08:18PM 34.4333 -88.0333 105° East 484 557 27,000  Level
08:19PM 34.4000 -87.8833 97° East 484 557 27,000  Level
08:20PM 34.3833 -87.7167 99° East 484 557 27,000  Level
08:21PM 34.3667 -87.5833 104° East 483 556 27,000  Level
08:22PM 34.3333 -87.4167 98° East 483 556 27,000  Level
08:23PM 34.3167 -87.2667 104° East 489 563 27,000  Level
08:24PM 34.2833 -87.1000 98° East 489 563 27,000  Level
08:25PM 34.2667 -86.9500 104° East 484 557 27,000  Level
08:26PM 34.2333 -86.7833 98° East 484 557 27,000  Level
08:27PM 34.2167 -86.6333 104° East 484 557 27,000  Level
08:28PM 34.1833 -86.4667 105° East 479 551 27,000  Level
08:29PM 34.1500 -86.3167 97° East 474 545 27,000  Level
08:30PM 34.1333 -86.1500 105° East 474 545 27,000  Level
08:31PM 34.1000 -86.0000 97° East 464 534 27,000  Level
08:32PM 34.0833 -85.8333 105° East 472 543 27,000  Level
08:33PM 34.0500 -85.6833 105° East 472 543 27,000  Level
08:34PM 34.0167 -85.5333 104° East 472 543 27,000  Level
08:35PM 33.9833 -85.3667 98° East 479 551 27,000  Level
08:36PM 33.9667 -85.2167 104° East 479 551 27,000  Level
08:37PM 33.9333 -85.0500 105° East 474 545 27,000  Level
08:38PM 33.9000 -84.9000 103° East 474 545 27,000  Level
08:39PM 33.8667 -84.7333 105° East 474 545 27,000  Level
08:40PM 33.8333 -84.5833 103° East 469 540 27,000  Level
08:41PM 33.8000 -84.4167 98° East 474 545 27,000  Level
08:42PM 33.7833 -84.2667 103° East 481 554 27,000  Level
08:43PM 33.7500 -84.1000 105° East 481 554 27,000  Level
08:44PM 33.7167 -83.9500 98° East 476 548 27,000  Level
08:45PM 33.7000 -83.8000 105° East 469 540 27,000  Level
08:46PM 33.6667 -83.6500 103° East 469 540 27,000  Level
08:47PM 33.6333 -83.4833 105° East 474 545 27,000  Level
08:48PM 33.6000 -83.3333 105° East 474 545 27,000  Level
08:49PM 33.5667 -83.1833 105° East 471 542 27,000  Level
08:50PM 33.5333 -83.0333 360° North 468 539 27,000  Level
08:50PM 33.5333 -83.0333 105° East 471 542 27,000  Level
08:51PM 33.5000 -82.8833 360° North 468 539 27,000  Level
08:51PM 33.5000 -82.8833 98° East 471 542 27,000  Level
08:52PM 33.4833 -82.7333 140° Southeast 468 539 27,000  Level
08:52PM 33.4667 -82.7167 98° East 471 542 27,000  Level
08:53PM 33.4500 -82.5833 105° East 480 552 27,000  Level
08:54PM 33.4167 -82.4333 105° East 485 558 27,000  Level
08:55PM 33.3833 -82.2833 105° East 474 545 27,000  Level
08:56PM 33.3500 -82.1333 105° East 468 539 27,000  Level
08:57PM 33.3167 -81.9833 105° East 462 532 27,000  Level
08:58PM 33.2833 -81.8333 105° East 462 532 27,000 -180 Level
08:59PM 33.2500 -81.6833 98° East 467 537 26,700 -720 Descending
09:00PM 33.2333 -81.5333 105° East 467 537 25,600 -1,140 Descending
09:01PM 33.2000 -81.3833 107° East 455 524 24,500 -1,200 Descending
09:02PM 33.1667 -81.2500 107° East 444 511 23,300 -1,620 Descending
09:03PM 33.1333 -81.1167 107° East 437 503 21,300 -2,460 Descending
09:04PM 33.1000 -80.9833 98° East 419 482 18,400 -2,520 Descending
09:05PM 33.0833 -80.8500 109° East 406 467 16,300 -2,340 Descending
09:06PM 33.0500 -80.7333 107° East 386 444 13,800 -2,640 Descending
09:07PM 33.0333 -80.6667 90° East 349 402 11,700 -2,400 Descending
09:07PM 33.0333 -80.6167 112° Southeast 364 419 11,400 -1,380 Descending
09:08PM 33.0000 -80.5167 103° East 343 395 10,000 -1,140 Descending
09:09PM 32.9833 -80.4333 103° East 308 354 9,200 -1,200 Descending
09:10PM 32.9667 -80.3500 140° Southeast 272 313 7,700 -1,620 Descending
09:11PM 32.9500 -80.3333 112° Southeast 256 295 7,000 -1,440 Descending
09:11PM 32.9333 -80.2833 121° Southeast 256 295 6,300 -1,320 Descending
09:12PM 32.9000 -80.2167 128° Southeast 245 282 4,900 -1,200 Descending
09:13PM 32.8667 -80.1667 128° Southeast 227 261 4,000 -600 Descending
09:14PM 32.8333 -80.1167 360° North 170 196 3,800 -300 Descending
09:14PM 32.8333 -80.1167 105° East 203 234 3,700 -540 Descending
09:18PM 32.8000 -79.9667 105° East 189 217 2,000 -480 Descending